Time;durP1;ratioP1;P1;durP2;ratioP2;P2;SDS_P1;SDS_P2;PMS_P1;PMS_P2;Temp;Humidity;BMP_temperature;BMP_pressure;BME280_temperature;BME280_humidity;BME280_pressure;Samples;Min_cycle;Max_cycle;Signal;HPM_P1;HPM_P2
2022/10/24 00:02:04;;;;;;;2.92;2.72;;;15.90;99.90;;;;;;4808909;29;89327;-29
2022/10/24 00:04:33;;;;;;;7.10;3.08;;;15.90;99.90;;;;;;4809275;29;89482;-29
2022/10/24 00:06:59;;;;;;;5.88;2.47;;;15.90;99.90;;;;;;4808941;29;91101;-30
2022/10/24 00:09:25;;;;;;;3.83;2.75;;;15.90;99.90;;;;;;4808589;29;89643;-30
2022/10/24 00:11:50;;;;;;;2.53;2.05;;;15.80;99.90;;;;;;4808514;29;91442;-32
2022/10/24 00:14:16;;;;;;;5.25;2.17;;;15.80;99.90;;;;;;4808322;29;89532;-30
2022/10/24 00:16:42;;;;;;;3.40;2.30;;;15.70;99.90;;;;;;4809689;29;90348;-29
2022/10/24 00:19:07;;;;;;;5.50;2.67;;;15.70;99.90;;;;;;4808729;29;91056;-30
2022/10/24 00:21:33;;;;;;;7.03;2.30;;;15.60;99.90;;;;;;4808733;29;89272;-31
2022/10/24 00:23:58;;;;;;;8.20;2.15;;;15.60;99.90;;;;;;4808585;29;89453;-29
2022/10/24 00:26:24;;;;;;;3.90;2.47;;;15.50;99.90;;;;;;4815814;29;90385;-29
2022/10/24 00:28:49;;;;;;;3.15;2.15;;;15.50;99.90;;;;;;4808758;29;89806;-29
2022/10/24 00:31:16;;;;;;;5.25;2.80;;;15.50;99.90;;;;;;4808868;29;89363;-30
2022/10/24 00:33:43;;;;;;;3.15;2.35;;;15.50;99.90;;;;;;4809156;29;88878;-28
2022/10/24 00:36:17;;;;;;;3.88;2.30;;;15.50;99.90;;;;;;4808367;29;90174;-30
2022/10/24 00:38:43;;;;;;;3.78;2.00;;;15.40;99.90;;;;;;4807972;29;90633;-32
2022/10/24 00:41:36;;;;;;;3.10;2.15;;;15.40;99.90;;;;;;4808660;29;90612;-29
2022/10/24 00:44:25;;;;;;;2.90;1.75;;;15.30;99.90;;;;;;4808372;29;88479;-30
2022/10/24 00:47:01;;;;;;;2.60;1.60;;;15.40;99.90;;;;;;4806625;29;90663;-30
2022/10/24 00:50:01;;;;;;;6.15;2.55;;;15.40;99.90;;;;;;4808504;29;90065;-29
2022/10/24 00:52:38;;;;;;;2.58;2.05;;;15.30;99.90;;;;;;4808671;29;89939;-32
2022/10/24 00:55:05;;;;;;;2.08;1.65;;;15.40;99.90;;;;;;4808627;29;88723;-32
2022/10/24 00:57:45;;;;;;;2.92;1.85;;;15.40;99.90;;;;;;4809010;29;89885;-28
2022/10/24 01:00:20;;;;;;;2.72;1.65;;;15.40;99.90;;;;;;4808474;29;89878;-29
2022/10/24 01:02:46;;;;;;;6.47;2.92;;;15.40;99.90;;;;;;4807783;29;89490;-28
2022/10/24 01:05:12;;;;;;;4.57;1.98;;;15.40;99.90;;;;;;4807498;29;90017;-31
2022/10/24 01:08:07;;;;;;;3.55;1.88;;;15.40;99.90;;;;;;4808712;29;89897;-28
2022/10/24 01:10:47;;;;;;;8.13;2.45;;;15.30;99.90;;;;;;4806946;29;89893;-31
2022/10/24 01:13:50;;;;;;;4.57;2.63;;;15.40;99.90;;;;;;4807902;29;90445;-31
2022/10/24 01:16:51;;;;;;;11.38;2.42;;;15.40;99.90;;;;;;4808315;29;89516;-31
2022/10/24 01:19:49;;;;;;;7.55;2.67;;;15.50;99.90;;;;;;4808184;29;89833;-30
2022/10/24 01:22:21;;;;;;;6.53;3.20;;;15.60;99.90;;;;;;4807356;29;90425;-30
2022/10/24 01:24:54;;;;;;;3.40;1.95;;;15.60;99.90;;;;;;4808222;29;89469;-28
2022/10/24 01:27:43;;;;;;;4.03;2.22;;;15.60;99.90;;;;;;4808115;29;90059;-33
2022/10/24 01:30:13;;;;;;;3.90;2.90;;;15.60;99.90;;;;;;4807729;29;90306;-30
2022/10/24 01:33:00;;;;;;;5.22;2.65;;;15.60;99.90;;;;;;4806660;29;90526;-32
2022/10/24 01:35:46;;;;;;;2.77;2.10;;;15.60;99.90;;;;;;4791006;29;90142;-31
2022/10/24 01:38:15;;;;;;;4.70;3.05;;;15.60;99.90;;;;;;4780558;29;89046;-32
2022/10/24 01:40:49;;;;;;;7.85;3.03;;;15.70;99.90;;;;;;4807233;29;89138;-32
2022/10/24 01:43:18;;;;;;;4.35;2.08;;;15.70;99.90;;;;;;4807671;29;90103;-29
2022/10/24 01:45:49;;;;;;;3.55;2.83;;;15.70;99.90;;;;;;4806650;29;89536;-31
2022/10/24 01:48:18;;;;;;;28.17;3.67;;;15.70;99.90;;;;;;4807435;29;89325;-32
2022/10/24 01:50:48;;;;;;;9.20;3.75;;;15.70;99.90;;;;;;4807081;29;90014;-29
2022/10/24 01:53:14;;;;;;;8.85;3.45;;;15.70;99.90;;;;;;4807492;29;90048;-29
2022/10/24 01:55:41;;;;;;;4.65;2.85;;;15.60;99.90;;;;;;4807656;29;89883;-32
2022/10/24 01:58:07;;;;;;;9.50;3.88;;;15.60;99.90;;;;;;4806400;29;90204;-30
2022/10/24 02:00:33;;;;;;;7.97;3.83;;;15.60;99.90;;;;;;4807238;29;90565;-31
2022/10/24 02:03:18;;;;;;;3.47;2.85;;;15.50;99.90;;;;;;4807525;29;89786;-30
2022/10/24 02:05:49;;;;;;;9.98;4.50;;;15.50;99.90;;;;;;4790667;29;89634;-31
2022/10/24 02:08:19;;;;;;;8.27;3.58;;;15.50;99.90;;;;;;4807618;29;88009;-29
2022/10/24 02:10:54;;;;;;;10.45;3.10;;;15.40;99.90;;;;;;4807121;29;90304;-28
2022/10/24 02:13:48;;;;;;;8.63;3.60;;;15.40;99.90;;;;;;4807028;29;89782;-29
2022/10/24 02:16:18;;;;;;;8.23;4.05;;;15.40;99.90;;;;;;4807943;29;89547;-31
2022/10/24 02:18:44;;;;;;;5.63;3.42;;;15.40;99.90;;;;;;4806224;29;89882;-29
2022/10/24 02:21:18;;;;;;;8.02;4.22;;;15.40;99.90;;;;;;4805962;29;92411;-29
2022/10/24 02:24:10;;;;;;;6.88;4.88;;;15.40;99.90;;;;;;4789918;29;91217;-32
2022/10/24 02:26:56;;;;;;;4.25;3.30;;;15.30;99.90;;;;;;4806406;29;90646;-30
2022/10/24 02:29:46;;;;;;;14.95;3.97;;;15.30;99.90;;;;;;4807902;29;90334;-27
2022/10/24 02:32:17;;;;;;;5.32;3.30;;;15.20;99.90;;;;;;4806502;29;89555;-29
2022/10/24 02:34:45;;;;;;;7.28;3.60;;;15.20;99.90;;;;;;4806893;29;89631;-29
2022/10/24 02:37:11;;;;;;;;;;;15.20;99.90;;;;;;4807245;29;90347;-28
2022/10/24 02:39:39;;;;;;;4.22;3.03;;;15.20;99.90;;;;;;4808805;29;88793;-31
2022/10/24 02:42:07;;;;;;;3.42;3.03;;;15.10;99.90;;;;;;4807355;29;90263;-30
2022/10/24 02:44:34;;;;;;;4.88;3.97;;;15.00;99.90;;;;;;4789993;29;89466;-30
2022/10/24 02:47:03;;;;;;;5.25;2.88;;;15.00;99.90;;;;;;4806754;29;90607;-29
2022/10/24 02:49:28;;;;;;;7.50;3.58;;;14.90;99.90;;;;;;4806516;29;89014;-34
2022/10/24 02:51:54;;;;;;;6.55;3.97;;;14.90;99.90;;;;;;4807271;29;89311;-28
2022/10/24 02:54:20;;;;;;;5.95;3.25;;;14.90;99.90;;;;;;4806465;29;89986;-32
2022/10/24 02:56:53;;;;;;;5.65;3.13;;;14.80;99.90;;;;;;4806469;29;89365;-28
2022/10/24 02:59:19;;;;;;;7.18;3.88;;;14.80;99.90;;;;;;4806557;29;89419;-29
2022/10/24 03:01:44;;;;;;;3.70;3.15;;;14.80;99.90;;;;;;4806606;29;90198;-32
2022/10/24 03:04:10;;;;;;;5.18;3.25;;;14.80;99.90;;;;;;4806599;29;89508;-29
2022/10/24 03:06:36;;;;;;;4.30;3.17;;;14.80;99.90;;;;;;4806986;29;89820;-30
2022/10/24 03:09:02;;;;;;;3.47;3.17;;;14.70;99.90;;;;;;4806907;29;88267;-29
2022/10/24 03:11:28;;;;;;;10.00;4.15;;;14.70;99.90;;;;;;4809590;29;91469;-28
2022/10/24 03:13:53;;;;;;;11.95;4.47;;;14.70;99.90;;;;;;4793271;29;91285;-29
2022/10/24 03:16:19;;;;;;;6.28;3.72;;;14.60;99.90;;;;;;4810175;29;90552;-28
2022/10/24 03:18:45;;;;;;;5.45;3.63;;;14.60;99.90;;;;;;4809609;29;89749;-31
2022/10/24 03:21:10;;;;;;;7.97;3.13;;;14.60;99.90;;;;;;4809342;29;90016;-31
2022/10/24 03:23:36;;;;;;;4.75;2.63;;;14.60;99.90;;;;;;4809465;29;89899;-32
2022/10/24 03:26:01;;;;;;;8.00;3.72;;;14.70;99.90;;;;;;4809646;29;89759;-29
2022/10/24 03:28:27;;;;;;;6.03;3.47;;;14.70;99.90;;;;;;4810219;29;89963;-28
2022/10/24 03:30:55;;;;;;;13.50;3.55;;;14.70;99.90;;;;;;4796550;29;90342;-30
2022/10/24 03:33:21;;;;;;;8.93;3.30;;;14.80;99.90;;;;;;4809175;29;90777;-30
2022/10/24 03:35:52;;;;;;;12.05;3.92;;;14.80;99.90;;;;;;4808923;29;90016;-29
2022/10/24 03:38:18;;;;;;;11.98;3.17;;;14.90;99.90;;;;;;4809347;29;90858;-28
2022/10/24 03:40:44;;;;;;;4.35;3.00;;;15.00;99.90;;;;;;4809376;29;90186;-32
2022/10/24 03:43:09;;;;;;;7.95;3.90;;;15.00;99.90;;;;;;4809071;29;90333;-28
2022/10/24 03:45:36;;;;;;;5.35;3.35;;;15.10;99.90;;;;;;4809313;29;89144;-29
2022/10/24 03:48:02;;;;;;;9.85;3.33;;;15.10;99.90;;;;;;4809771;29;88951;-32
2022/10/24 03:50:28;;;;;;;8.43;4.43;;;15.20;99.90;;;;;;4809667;29;90273;-29
2022/10/24 03:52:54;;;;;;;9.32;3.63;;;15.30;99.90;;;;;;4808911;29;89729;-31
2022/10/24 03:55:20;;;;;;;6.07;3.42;;;15.40;99.90;;;;;;4809442;29;90079;-29
2022/10/24 03:57:46;;;;;;;4.35;3.45;;;15.40;99.90;;;;;;4809407;29;88348;-28
2022/10/24 04:00:12;;;;;;;5.90;3.95;;;15.40;99.90;;;;;;4792855;29;91414;-30
2022/10/24 04:02:38;;;;;;;7.25;3.38;;;15.50;99.90;;;;;;4808702;29;90686;-29
2022/10/24 04:05:04;;;;;;;9.73;3.35;;;15.50;99.90;;;;;;4808547;29;90632;-30
2022/10/24 04:07:30;;;;;;;3.97;3.58;;;15.50;99.90;;;;;;4810159;29;88262;-31
2022/10/24 04:09:56;;;;;;;9.77;3.38;;;15.50;99.90;;;;;;4808510;29;90830;-30
2022/10/24 04:12:22;;;;;;;7.43;2.65;;;15.60;99.90;;;;;;4809334;29;89286;-32
2022/10/24 04:14:48;;;;;;;5.65;3.47;;;15.60;99.90;;;;;;4808958;29;89519;-29
2022/10/24 04:17:14;;;;;;;3.40;3.08;;;15.60;99.90;;;;;;4809049;29;88969;-29
2022/10/24 04:19:40;;;;;;;3.60;2.92;;;15.70;99.90;;;;;;4808832;29;89023;-32
2022/10/24 04:22:06;;;;;;;4.78;3.60;;;15.70;99.90;;;;;;4808998;29;90836;-30
2022/10/24 04:24:32;;;;;;;4.43;3.67;;;15.60;99.90;;;;;;4809578;29;89721;-28
2022/10/24 04:26:58;;;;;;;4.75;2.80;;;15.60;99.90;;;;;;4808336;29;89091;-29
2022/10/24 04:29:23;;;;;;;6.18;2.95;;;15.50;99.90;;;;;;4808688;29;89337;-28
2022/10/24 04:31:49;;;;;;;9.48;3.30;;;15.60;99.90;;;;;;4808461;29;89479;-27
2022/10/24 04:34:14;;;;;;;4.10;2.92;;;15.60;99.90;;;;;;4855619;23;91023;-33
2022/10/24 04:36:40;;;;;;;6.53;2.47;;;15.50;99.90;;;;;;4827125;29;89695;-33
2022/10/24 04:39:06;;;;;;;20.05;3.47;;;15.50;99.90;;;;;;4827257;29;89080;-31
2022/10/24 04:41:31;;;;;;;4.13;2.65;;;15.50;99.90;;;;;;4827112;29;89411;-32
2022/10/24 04:43:57;;;;;;;9.20;3.03;;;15.40;99.90;;;;;;4827463;29;89958;-27
2022/10/24 04:46:23;;;;;;;15.70;3.05;;;15.40;99.90;;;;;;4827255;29;89159;-29
2022/10/24 04:48:48;;;;;;;2.60;2.33;;;15.40;99.90;;;;;;4826809;29;90231;-30
2022/10/24 04:51:14;;;;;;;5.95;2.53;;;15.50;99.90;;;;;;4809638;29;91065;-30
2022/10/24 04:53:40;;;;;;;7.53;2.95;;;15.50;99.90;;;;;;4826868;29;90367;-32
2022/10/24 04:56:06;;;;;;;3.80;2.67;;;15.60;99.90;;;;;;4827114;29;87936;-28
2022/10/24 04:58:31;;;;;;;11.85;4.05;;;15.50;99.90;;;;;;4827094;29;89728;-29
2022/10/24 05:00:57;;;;;;;4.07;2.60;;;15.50;99.90;;;;;;4826765;29;90096;-29
2022/10/24 05:03:22;;;;;;;3.83;2.35;;;15.50;99.90;;;;;;4826545;29;89755;-30
2022/10/24 05:05:48;;;;;;;5.40;2.67;;;15.40;99.90;;;;;;4827123;29;89894;-31
2022/10/24 05:08:14;;;;;;;4.53;3.53;;;15.30;99.90;;;;;;4826760;29;89997;-29
2022/10/24 05:10:41;;;;;;;8.63;2.47;;;15.30;99.90;;;;;;4825766;29;88847;-30
2022/10/24 05:13:06;;;;;;;4.13;2.60;;;15.40;99.90;;;;;;4827144;29;89450;-29
2022/10/24 05:15:32;;;;;;;9.27;3.65;;;15.30;99.90;;;;;;4825601;29;89541;-29
2022/10/24 05:17:58;;;;;;;4.57;3.33;;;15.40;99.90;;;;;;4826808;29;90425;-30
2022/10/24 05:20:24;;;;;;;3.55;3.00;;;15.40;99.90;;;;;;4824241;29;90208;-30
2022/10/24 05:22:50;;;;;;;10.25;2.78;;;15.40;99.90;;;;;;4816200;29;89557;-29
2022/10/24 05:25:16;;;;;;;7.00;2.58;;;15.40;99.90;;;;;;4807028;29;89191;-30
2022/10/24 05:27:41;;;;;;;7.10;2.75;;;15.40;99.90;;;;;;4817491;29;90298;-29
2022/10/24 05:30:08;;;;;;;5.78;2.92;;;15.30;99.90;;;;;;4826337;29;89964;-29
2022/10/24 05:32:33;;;;;;;5.03;3.08;;;15.30;99.90;;;;;;4825807;29;91462;-28
2022/10/24 05:34:59;;;;;;;3.85;2.63;;;15.30;99.90;;;;;;4826150;29;88470;-29
2022/10/24 05:37:24;;;;;;;9.02;2.72;;;15.20;99.90;;;;;;4826425;29;91436;-31
2022/10/24 05:39:50;;;;;;;3.03;2.28;;;15.20;99.90;;;;;;4824804;29;90988;-32
2022/10/24 05:42:16;;;;;;;5.97;2.53;;;15.10;99.90;;;;;;4826194;29;89225;-31
2022/10/24 05:44:41;;;;;;;2.83;2.42;;;15.10;99.90;;;;;;4826242;29;88210;-28
2022/10/24 05:47:07;;;;;;;7.20;3.00;;;15.00;99.90;;;;;;4825604;29;90726;-29
2022/10/24 05:49:33;;;;;;;4.50;2.70;;;15.00;99.90;;;;;;4826171;29;89885;-29
2022/10/24 05:51:58;;;;;;;6.03;2.65;;;15.00;99.90;;;;;;4825386;29;88743;-30
2022/10/24 05:54:24;;;;;;;10.63;2.85;;;15.10;99.90;;;;;;4825371;29;88090;-30
2022/10/24 05:56:50;;;;;;;6.53;2.20;;;15.00;99.90;;;;;;4824983;29;90378;-31
2022/10/24 05:59:15;;;;;;;2.92;2.20;;;15.00;99.90;;;;;;4826594;29;89302;-28
2022/10/24 06:01:41;;;;;;;3.55;2.75;;;15.00;99.90;;;;;;4823361;29;89556;-30
2022/10/24 06:04:07;;;;;;;8.15;2.92;;;15.00;99.90;;;;;;4823602;29;88478;-28
2022/10/24 06:06:38;;;;;;;7.38;3.25;;;14.90;99.90;;;;;;4823598;29;90222;-28
2022/10/24 06:09:04;;;;;;;11.45;2.88;;;15.00;99.90;;;;;;4821740;29;90354;-31
2022/10/24 06:11:29;;;;;;;3.60;2.97;;;14.90;99.90;;;;;;4823264;29;89990;-32
2022/10/24 06:13:55;;;;;;;4.68;2.45;;;15.00;99.90;;;;;;4822888;29;89201;-30
2022/10/24 06:16:21;;;;;;;2.53;2.25;;;15.00;99.90;;;;;;4823391;29;90217;-30
2022/10/24 06:18:46;;;;;;;4.65;2.17;;;15.00;99.90;;;;;;4822838;29;89907;-31
2022/10/24 06:21:12;;;;;;;5.05;2.30;;;14.90;99.90;;;;;;4824501;29;88877;-29
2022/10/24 06:23:38;;;;;;;5.32;3.63;;;15.00;99.90;;;;;;4823828;29;88318;-30
2022/10/24 06:26:08;;;;;;;3.35;2.60;;;15.00;99.90;;;;;;4823139;29;90764;-30
2022/10/24 06:28:34;;;;;;;6.93;2.25;;;15.00;99.90;;;;;;4822995;29;90713;-29
2022/10/24 06:31:02;;;;;;;5.38;2.25;;;15.10;99.90;;;;;;4822980;29;92009;-27
2022/10/24 06:33:28;;;;;;;3.42;2.03;;;15.10;99.90;;;;;;4823108;29;89281;-30
2022/10/24 06:35:53;;;;;;;4.43;2.17;;;15.20;99.90;;;;;;4823083;29;90723;-31
2022/10/24 06:38:19;;;;;;;23.40;3.08;;;15.20;99.90;;;;;;4823998;29;90913;-30
2022/10/24 06:40:45;;;;;;;3.83;2.10;;;15.20;99.90;;;;;;4822817;29;89904;-29
2022/10/24 06:43:10;;;;;;;6.38;2.78;;;15.30;99.90;;;;;;4823706;29;88364;-31
2022/10/24 06:45:39;;;;;;;6.28;3.63;;;15.30;99.90;;;;;;4825274;29;90418;-30
2022/10/24 06:48:04;;;;;;;;;;;15.30;99.90;;;;;;4827474;29;90989;-29
2022/10/24 06:50:30;;;;;;;4.10;2.00;;;15.40;99.90;;;;;;4828638;29;88746;-31
2022/10/24 06:52:55;;;;;;;9.82;2.50;;;15.40;99.90;;;;;;4826153;29;89120;-30
2022/10/24 06:55:21;;;;;;;2.47;2.28;;;15.50;99.90;;;;;;4826742;29;90281;-31
2022/10/24 06:57:47;;;;;;;3.33;2.35;;;15.50;99.90;;;;;;4825567;29;90808;-29
2022/10/24 07:00:13;;;;;;;4.10;2.15;;;15.40;99.90;;;;;;4826228;29;89292;-29
2022/10/24 07:02:39;;;;;;;2.95;2.47;;;15.40;99.90;;;;;;4827631;29;89995;-29
2022/10/24 07:05:08;;;;;;;5.93;3.42;;;15.50;99.90;;;;;;4826317;29;89978;-31
2022/10/24 07:07:33;;;;;;;3.78;2.53;;;15.50;99.90;;;;;;4826039;29;90005;-30
2022/10/24 07:09:59;;;;;;;7.53;2.70;;;15.60;99.90;;;;;;4826182;29;89681;-29
2022/10/24 07:12:25;;;;;;;3.53;2.53;;;15.50;99.90;;;;;;4825998;29;88224;-31
2022/10/24 07:14:51;;;;;;;3.95;2.60;;;15.50;99.90;;;;;;4826252;29;90266;-32
2022/10/24 07:17:18;;;;;;;6.47;3.08;;;15.50;99.90;;;;;;4826016;29;90825;-31
2022/10/24 07:19:43;;;;;;;1.73;1.63;;;15.50;99.90;;;;;;4825228;29;90858;-29
2022/10/24 07:22:09;;;;;;;5.75;3.08;;;15.50;99.90;;;;;;4809077;29;88963;-29
2022/10/24 07:24:35;;;;;;;5.75;2.95;;;15.60;99.90;;;;;;4825797;29;90385;-29
2022/10/24 07:27:01;;;;;;;3.28;2.28;;;15.60;99.90;;;;;;4825599;29;89963;-30
2022/10/24 07:29:26;;;;;;;4.22;2.42;;;15.60;99.90;;;;;;4825959;29;91301;-29
2022/10/24 07:31:53;;;;;;;2.40;2.17;;;15.60;99.90;;;;;;4825032;29;88283;-34
2022/10/24 07:34:19;;;;;;;5.47;2.50;;;15.70;99.90;;;;;;4825775;29;89983;-30
2022/10/24 07:36:44;;;;;;;6.20;2.55;;;15.70;99.90;;;;;;4825671;29;91090;-29
2022/10/24 07:39:11;;;;;;;8.10;2.30;;;15.70;99.90;;;;;;4826005;29;89659;-31
2022/10/24 07:41:42;;;;;;;4.95;2.33;;;15.90;99.90;;;;;;4825696;29;90664;-30
2022/10/24 07:44:09;;;;;;;5.20;2.17;;;15.90;99.90;;;;;;4825859;29;90270;-31
2022/10/24 07:46:34;;;;;;;3.80;2.67;;;16.10;99.90;;;;;;4825087;29;89810;-31
2022/10/24 07:49:00;;;;;;;6.85;2.65;;;16.10;99.90;;;;;;4825271;29;89559;-31
2022/10/24 07:51:27;;;;;;;11.07;2.92;;;16.20;99.90;;;;;;4826845;29;89127;-29
2022/10/24 07:53:53;;;;;;;2.78;2.25;;;16.20;99.90;;;;;;4825094;29;89899;-32
2022/10/24 07:56:19;;;;;;;7.57;3.08;;;16.10;99.90;;;;;;4825374;29;89228;-28
2022/10/24 07:58:45;;;;;;;6.05;2.78;;;16.20;99.90;;;;;;4825716;29;89950;-30
2022/10/24 08:01:17;;;;;;;5.05;2.63;;;16.20;99.90;;;;;;4825698;29;88903;-32
2022/10/24 08:03:43;;;;;;;8.40;3.35;;;16.20;99.90;;;;;;4825337;29;90085;-30
2022/10/24 08:06:16;;;;;;;4.72;2.55;;;16.20;99.90;;;;;;4824769;29;90233;-32
2022/10/24 08:08:42;;;;;;;6.55;3.60;;;16.30;99.90;;;;;;4825269;29;90056;-29
2022/10/24 08:11:10;;;;;;;9.32;3.00;;;16.30;99.90;;;;;;4824882;29;88930;-31
2022/10/24 08:13:36;;;;;;;3.90;1.95;;;16.30;99.90;;;;;;4825422;29;90582;-32
2022/10/24 08:16:06;;;;;;;2.42;2.17;;;16.30;99.90;;;;;;4825148;29;90136;-30
2022/10/24 08:18:32;;;;;;;3.72;2.55;;;16.40;99.90;;;;;;4825772;29;90264;-29
2022/10/24 08:21:00;;;;;;;2.65;2.42;;;16.30;99.90;;;;;;4807721;29;88349;-30
2022/10/24 08:23:26;;;;;;;3.15;2.03;;;16.40;99.90;;;;;;4825495;29;90610;-33
2022/10/24 08:25:52;;;;;;;2.15;1.77;;;16.50;99.90;;;;;;4825213;29;89655;-31
2022/10/24 08:28:18;;;;;;;4.95;2.25;;;16.50;99.90;;;;;;4825121;29;89840;-29
2022/10/24 08:30:44;;;;;;;4.50;2.00;;;16.60;99.90;;;;;;4824706;29;89869;-32
2022/10/24 08:33:09;;;;;;;4.18;1.80;;;16.60;99.90;;;;;;4824989;29;90199;-30
2022/10/24 08:35:35;;;;;;;4.45;1.83;;;16.60;99.90;;;;;;4824893;29;89746;-30
2022/10/24 08:38:00;;;;;;;8.43;2.20;;;16.70;99.90;;;;;;4824865;29;89586;-31
2022/10/24 08:40:27;;;;;;;3.08;2.00;;;16.90;99.90;;;;;;4825274;29;88344;-27
2022/10/24 08:42:52;;;;;;;7.60;1.80;;;17.10;99.90;;;;;;4824967;29;90147;-30
2022/10/24 08:45:28;;;;;;;6.25;2.33;;;17.10;99.90;;;;;;4824825;29;89441;-30
2022/10/24 08:48:11;;;;;;;4.63;2.25;;;17.10;99.90;;;;;;4824066;29;89077;-30
2022/10/24 08:50:43;;;;;;;5.90;2.25;;;17.00;99.90;;;;;;4825361;29;89634;-31
2022/10/24 08:53:15;;;;;;;6.30;2.28;;;17.00;99.90;;;;;;4825297;29;90167;-32
2022/10/24 08:55:50;;;;;;;4.70;2.30;;;17.00;99.90;;;;;;4824147;29;90861;-33
2022/10/24 08:58:27;;;;;;;7.07;2.83;;;17.00;99.90;;;;;;4812907;29;90933;-29
2022/10/24 09:00:56;;;;;;;5.50;1.88;;;17.00;99.90;;;;;;4824738;29;89718;-29
2022/10/24 09:03:38;;;;;;;5.03;2.38;;;17.00;99.90;;;;;;4824569;29;90403;-31
2022/10/24 09:06:16;;;;;;;4.93;2.40;;;17.00;99.90;;;;;;4824793;29;90926;-30
2022/10/24 09:08:50;;;;;;;2.92;1.13;;;17.00;99.90;;;;;;4824018;29;89491;-30
2022/10/24 09:11:41;;;;;;;5.82;2.53;;;17.00;99.90;;;;;;4824655;29;88472;-32
2022/10/24 09:14:22;;;;;;;5.53;3.50;;;17.00;99.90;;;;;;4824773;29;90138;-31
2022/10/24 09:17:05;;;;;;;7.55;1.98;;;17.00;99.90;;;;;;4824152;29;89596;-33
2022/10/24 09:19:31;;;;;;;7.55;2.13;;;17.00;99.90;;;;;;4824802;29;89483;-30
2022/10/24 09:21:58;;;;;;;2.97;1.98;;;17.00;99.90;;;;;;4823357;29;90037;-32
2022/10/24 09:24:31;;;;;;;9.95;3.28;;;16.90;99.90;;;;;;4816206;29;90648;-32
2022/10/24 09:26:59;;;;;;;5.63;2.15;;;17.00;99.90;;;;;;4820324;29;90090;-31
2022/10/24 09:29:28;;;;;;;8.80;3.15;;;16.90;99.90;;;;;;4824475;29;89734;-32
2022/10/24 09:31:54;;;;;;;12.65;2.17;;;16.90;99.90;;;;;;4824136;29;89525;-29
2022/10/24 09:34:19;;;;;;;8.57;2.88;;;17.00;99.90;;;;;;4823346;29;90646;-33
2022/10/24 09:36:45;;;;;;;5.70;1.88;;;17.00;99.90;;;;;;4824299;29;89301;-29
2022/10/24 09:39:26;;;;;;;4.57;1.92;;;17.00;99.90;;;;;;4824340;29;89542;-31
2022/10/24 09:41:52;;;;;;;5.25;2.42;;;17.10;99.90;;;;;;4823579;29;88677;-31
2022/10/24 09:44:37;;;;;;;7.47;2.00;;;17.20;99.90;;;;;;4824206;29;90334;-29
2022/10/24 09:47:05;;;;;;;8.05;3.05;;;17.30;99.90;;;;;;4823217;29;90755;-30
2022/10/24 09:49:37;;;;;;;8.23;2.47;;;17.40;99.90;;;;;;4824167;29;89925;-31
2022/10/24 09:52:15;;;;;;;6.70;2.50;;;17.40;99.90;;;;;;4824246;29;89722;-30
2022/10/24 09:54:42;;;;;;;8.90;2.72;;;17.40;99.90;;;;;;4824199;29;90610;-30
2022/10/24 09:57:11;;;;;;;5.03;2.57;;;17.30;99.90;;;;;;4823376;29;90163;-32
2022/10/24 09:59:45;;;;;;;12.05;3.30;;;17.20;99.90;;;;;;4824241;29;90185;-32
2022/10/24 10:02:33;;;;;;;4.32;2.67;;;17.20;99.90;;;;;;4824381;29;88054;-29
2022/10/24 10:05:02;;;;;;;3.28;2.75;;;17.10;99.90;;;;;;4811372;29;89905;-29
2022/10/24 10:07:32;;;;;;;6.15;1.95;;;17.20;99.90;;;;;;4823818;29;89937;-30
2022/10/24 10:10:05;;;;;;;5.80;2.03;;;17.20;99.90;;;;;;4823883;29;90218;-29
2022/10/24 10:12:38;;;;;;;2.60;1.92;;;17.30;99.90;;;;;;4823926;29;90153;-30
2022/10/24 10:15:25;;;;;;;12.30;2.65;;;17.40;99.90;;;;;;4823253;29;90627;-32
2022/10/24 10:17:54;;;;;;;12.60;2.95;;;17.40;99.90;;;;;;4822358;29;89466;-29
2022/10/24 10:20:29;;;;;;;7.80;2.63;;;17.50;99.90;;;;;;4821444;29;89639;-30
2022/10/24 10:22:54;;;;;;;8.70;2.85;;;17.40;99.90;;;;;;4818653;29;88538;-31
2022/10/24 10:25:31;;;;;;;3.13;1.35;;;17.50;99.90;;;;;;4823137;29;90295;-32
2022/10/24 10:27:57;;;;;;;7.50;1.45;;;17.40;99.90;;;;;;4813992;29;89665;-29
2022/10/24 10:30:24;;;;;;;5.40;2.30;;;17.40;99.90;;;;;;4823909;29;89936;-29
2022/10/24 10:33:17;;;;;;;5.68;1.83;;;17.30;99.90;;;;;;4822347;29;88156;-30
2022/10/24 10:35:51;;;;;;;1.85;1.63;;;17.30;99.90;;;;;;4822626;29;90556;-31
2022/10/24 10:38:29;;;;;;;5.70;1.92;;;17.10;99.90;;;;;;4822511;29;89929;-31
2022/10/24 10:41:28;;;;;;;4.32;2.65;;;17.00;99.90;;;;;;4822761;29;88745;-29
2022/10/24 10:44:10;;;;;;;12.98;1.67;;;17.00;99.90;;;;;;4823023;29;89300;-31
2022/10/24 10:46:58;;;;;;;3.10;2.47;;;17.00;99.90;;;;;;4824090;29;90483;-30
2022/10/24 10:49:38;;;;;;;4.32;2.35;;;17.00;99.90;;;;;;4807302;29;89820;-30
2022/10/24 10:52:25;;;;;;;2.33;1.42;;;16.90;99.90;;;;;;4823675;29;90634;-32
2022/10/24 10:55:00;;;;;;;5.47;1.90;;;16.80;99.90;;;;;;4823658;29;89041;-29
2022/10/24 10:57:41;;;;;;;5.53;2.67;;;17.00;99.90;;;;;;4823735;29;89503;-28
2022/10/24 11:00:13;;;;;;;7.05;2.83;;;17.10;99.90;;;;;;4822973;29;89569;-31
2022/10/24 11:03:06;;;;;;;4.03;2.15;;;17.30;99.90;;;;;;4822699;29;89458;-32
2022/10/24 11:05:39;;;;;;;6.00;1.90;;;17.30;99.90;;;;;;4813248;29;88981;-31
2022/10/24 11:08:42;;;;;;;11.32;2.28;;;17.40;99.90;;;;;;4821893;29;89732;-30
2022/10/24 11:11:19;;;;;;;3.88;2.25;;;17.50;99.90;;;;;;4823000;29;89769;-30
2022/10/24 11:13:48;;;;;;;4.75;1.75;;;17.70;99.90;;;;;;4811242;29;89682;-32
2022/10/24 11:16:23;;;;;;;5.00;2.22;;;17.80;99.90;;;;;;4822993;29;90218;-29
2022/10/24 11:18:51;;;;;;;5.13;1.73;;;17.80;99.90;;;;;;4810292;29;90168;-31
2022/10/24 11:21:20;;;;;;;5.90;2.05;;;17.80;99.90;;;;;;4822541;29;89436;-30
2022/10/24 11:24:00;;;;;;;11.05;2.20;;;17.80;99.90;;;;;;4821756;29;89231;-33
2022/10/24 11:26:33;;;;;;;5.35;1.52;;;17.90;99.90;;;;;;4823322;29;88488;-31
2022/10/24 11:29:13;;;;;;;3.08;1.80;;;17.90;99.90;;;;;;4820693;29;90461;-30
2022/10/24 11:31:51;;;;;;;4.55;1.80;;;17.90;99.90;;;;;;4822346;29;91042;-29
2022/10/24 11:34:49;;;;;;;3.80;1.83;;;18.00;99.90;;;;;;4825406;29;90569;-33
2022/10/24 11:37:23;;;;;;;11.52;2.35;;;17.90;99.90;;;;;;4826548;29;88563;-31
2022/10/24 11:40:19;;;;;;;4.75;1.50;;;17.80;99.90;;;;;;4825704;29;90839;-32
2022/10/24 11:43:01;;;;;;;4.50;2.80;;;17.80;99.90;;;;;;4824325;29;89878;-32
2022/10/24 11:45:50;;;;;;;4.05;1.58;;;17.80;99.90;;;;;;4815979;29;89488;-30
2022/10/24 11:48:16;;;;;;;2.30;1.30;;;17.80;99.90;;;;;;4823208;29;88606;-30
2022/10/24 11:50:49;;;;;;;6.55;1.95;;;17.80;99.90;;;;;;4825523;29;90698;-31
2022/10/24 11:53:30;;;;;;;4.03;1.27;;;17.70;99.90;;;;;;4826180;29;89793;-30
2022/10/24 11:56:16;;;;;;;3.53;1.70;;;17.70;99.90;;;;;;4825705;29;90503;-30
2022/10/24 11:58:58;;;;;;;3.30;1.85;;;17.80;99.90;;;;;;4824364;29;88948;-30
2022/10/24 12:01:55;;;;;;;6.20;1.70;;;17.80;99.90;;;;;;4825079;29;90377;-32
2022/10/24 12:04:44;;;;;;;3.80;2.00;;;17.70;99.90;;;;;;4825629;29;89732;-32
2022/10/24 12:07:26;;;;;;;3.67;1.50;;;17.80;99.90;;;;;;4785315;29;88675;-30
2022/10/24 12:10:18;;;;;;;6.38;2.60;;;17.80;99.90;;;;;;4824608;29;89187;-32
2022/10/24 12:13:22;;;;;;;2.47;1.52;;;17.80;99.90;;;;;;4820160;29;90002;-30
2022/10/24 12:16:06;;;;;;;4.68;1.60;;;17.80;99.90;;;;;;4813988;29;89664;-30
2022/10/24 12:18:44;;;;;;;5.68;1.65;;;17.90;99.90;;;;;;4812516;29;87916;-30
2022/10/24 12:21:14;;;;;;;4.13;1.55;;;17.90;99.90;;;;;;4822513;29;89744;-31
2022/10/24 12:23:41;;;;;;;4.38;1.58;;;17.80;99.90;;;;;;4825004;29;90162;-33
2022/10/24 12:26:12;;;;;;;3.33;1.60;;;17.70;99.90;;;;;;4812393;29;90529;-31
2022/10/24 12:28:39;;;;;;;5.28;2.22;;;17.60;99.90;;;;;;4823314;29;89445;-29
2022/10/24 12:31:14;;;;;;;4.68;1.60;;;17.40;99.90;;;;;;4824994;29;87915;-29
2022/10/24 12:33:41;;;;;;;4.38;1.77;;;17.40;99.90;;;;;;4824320;29;89892;-34
2022/10/24 12:36:08;;;;;;;5.90;2.63;;;17.20;99.90;;;;;;4824604;29;89860;-30
2022/10/24 12:38:34;;;;;;;17.85;4.60;;;17.20;99.90;;;;;;4824128;29;90199;-29
2022/10/24 12:41:08;;;;;;;4.88;2.40;;;17.20;99.90;;;;;;4825045;29;89600;-28
2022/10/24 12:43:47;;;;;;;3.00;1.52;;;17.20;99.90;;;;;;4807172;29;90399;-30
2022/10/24 12:46:15;;;;;;;4.18;1.83;;;17.20;99.90;;;;;;4819831;29;89483;-31
2022/10/24 12:48:41;;;;;;;;;;;17.20;99.90;;;;;;4821934;29;89911;-33
2022/10/24 12:51:30;;;;;;;6.47;1.85;;;17.40;99.90;;;;;;4825949;29;89834;-29
2022/10/24 12:54:11;;;;;;;13.50;9.15;;;17.50;99.90;;;;;;4824680;29;90054;-32
2022/10/24 12:56:49;;;;;;;2.55;1.85;;;17.60;99.90;;;;;;4824740;29;89705;-33
2022/10/24 12:59:29;;;;;;;3.53;1.90;;;17.70;99.90;;;;;;4818948;29;88948;-30
2022/10/24 13:02:15;;;;;;;1.25;1.15;;;17.70;99.90;;;;;;4819333;29;89764;-32
2022/10/24 13:05:02;;;;;;;2.75;1.73;;;17.70;99.90;;;;;;4813355;29;90096;-32
2022/10/24 13:07:54;;;;;;;2.85;1.67;;;17.80;99.90;;;;;;4824945;29;89692;-29